sensor_id;sensor_type;location;lat;lon;timestamp;P1;durP1;ratioP1;P2;durP2;ratioP2
35245;SDS011;21379;50.962;6.960;2023-09-18T00:01:17;8.65;;;4.40;;
35245;SDS011;21379;50.962;6.960;2023-09-18T00:03:45;9.27;;;4.70;;
35245;SDS011;21379;50.962;6.960;2023-09-18T00:06:12;7.72;;;4.75;;
35245;SDS011;21379;50.962;6.960;2023-09-18T00:08:38;8.60;;;5.10;;
35245;SDS011;21379;50.962;6.960;2023-09-18T00:11:05;7.72;;;4.57;;
35245;SDS011;21379;50.962;6.960;2023-09-18T00:16:00;9.38;;;4.85;;
35245;SDS011;21379;50.962;6.960;2023-09-18T00:18:29;8.25;;;4.70;;
35245;SDS011;21379;50.962;6.960;2023-09-18T00:20:56;10.55;;;4.55;;
35245;SDS011;21379;50.962;6.960;2023-09-18T00:23:22;14.13;;;5.25;;
35245;SDS011;21379;50.962;6.960;2023-09-18T00:25:49;5.85;;;4.50;;
35245;SDS011;21379;50.962;6.960;2023-09-18T00:28:16;9.88;;;4.68;;
35245;SDS011;21379;50.962;6.960;2023-09-18T00:30:46;8.85;;;4.93;;
35245;SDS011;21379;50.962;6.960;2023-09-18T00:33:16;12.73;;;5.25;;
35245;SDS011;21379;50.962;6.960;2023-09-18T00:35:47;7.57;;;5.05;;
35245;SDS011;21379;50.962;6.960;2023-09-18T00:38:14;10.98;;;4.45;;
35245;SDS011;21379;50.962;6.960;2023-09-18T00:40:41;10.95;;;5.30;;
35245;SDS011;21379;50.962;6.960;2023-09-18T00:43:08;12.20;;;5.00;;
35245;SDS011;21379;50.962;6.960;2023-09-18T00:45:36;8.35;;;4.80;;
35245;SDS011;21379;50.962;6.960;2023-09-18T00:48:06;8.98;;;5.03;;
35245;SDS011;21379;50.962;6.960;2023-09-18T00:50:34;12.32;;;4.75;;
35245;SDS011;21379;50.962;6.960;2023-09-18T00:53:01;9.05;;;4.97;;
35245;SDS011;21379;50.962;6.960;2023-09-18T00:55:28;7.60;;;4.57;;
35245;SDS011;21379;50.962;6.960;2023-09-18T00:57:57;9.13;;;4.95;;
35245;SDS011;21379;50.962;6.960;2023-09-18T01:00:24;6.80;;;4.60;;
35245;SDS011;21379;50.962;6.960;2023-09-18T01:02:50;6.45;;;4.40;;
35245;SDS011;21379;50.962;6.960;2023-09-18T01:05:17;10.32;;;5.15;;
35245;SDS011;21379;50.962;6.960;2023-09-18T01:07:46;9.77;;;4.35;;
35245;SDS011;21379;50.962;6.960;2023-09-18T01:10:14;9.88;;;5.15;;
35245;SDS011;21379;50.962;6.960;2023-09-18T01:15:11;12.77;;;4.57;;
35245;SDS011;21379;50.962;6.960;2023-09-18T01:17:40;8.73;;;4.47;;
35245;SDS011;21379;50.962;6.960;2023-09-18T01:20:08;7.65;;;4.50;;
35245;SDS011;21379;50.962;6.960;2023-09-18T01:22:37;6.95;;;4.50;;
35245;SDS011;21379;50.962;6.960;2023-09-18T01:25:04;7.60;;;4.78;;
35245;SDS011;21379;50.962;6.960;2023-09-18T01:27:32;10.77;;;5.15;;
35245;SDS011;21379;50.962;6.960;2023-09-18T01:29:59;10.90;;;4.70;;
35245;SDS011;21379;50.962;6.960;2023-09-18T01:32:27;9.98;;;4.90;;
35245;SDS011;21379;50.962;6.960;2023-09-18T01:34:56;12.00;;;4.70;;
35245;SDS011;21379;50.962;6.960;2023-09-18T01:37:25;11.02;;;4.63;;
35245;SDS011;21379;50.962;6.960;2023-09-18T01:39:54;9.77;;;4.70;;
35245;SDS011;21379;50.962;6.960;2023-09-18T01:42:24;12.07;;;5.25;;
35245;SDS011;21379;50.962;6.960;2023-09-18T01:44:51;10.00;;;5.00;;
35245;SDS011;21379;50.962;6.960;2023-09-18T01:47:18;12.35;;;4.60;;
35245;SDS011;21379;50.962;6.960;2023-09-18T01:49:46;7.53;;;4.30;;
35245;SDS011;21379;50.962;6.960;2023-09-18T01:52:13;7.25;;;4.47;;
35245;SDS011;21379;50.962;6.960;2023-09-18T01:54:40;7.35;;;4.53;;
35245;SDS011;21379;50.962;6.960;2023-09-18T01:57:08;10.48;;;4.68;;
35245;SDS011;21379;50.962;6.960;2023-09-18T01:59:35;9.00;;;4.05;;
35245;SDS011;21379;50.962;6.960;2023-09-18T02:02:02;9.57;;;4.38;;
35245;SDS011;21379;50.962;6.960;2023-09-18T02:04:32;10.65;;;4.60;;
35245;SDS011;21379;50.962;6.960;2023-09-18T02:06:58;8.63;;;4.43;;
35245;SDS011;21379;50.962;6.960;2023-09-18T02:09:25;9.48;;;4.38;;
35245;SDS011;21379;50.962;6.960;2023-09-18T02:11:52;7.45;;;4.30;;
35245;SDS011;21379;50.962;6.960;2023-09-18T02:14:20;7.90;;;4.32;;
35245;SDS011;21379;50.962;6.960;2023-09-18T02:16:47;12.48;;;4.72;;
35245;SDS011;21379;50.962;6.960;2023-09-18T02:19:15;9.70;;;4.47;;
35245;SDS011;21379;50.962;6.960;2023-09-18T02:21:43;11.27;;;5.40;;
35245;SDS011;21379;50.962;6.960;2023-09-18T02:24:10;12.35;;;5.25;;
35245;SDS011;21379;50.962;6.960;2023-09-18T02:26:37;6.75;;;3.90;;
35245;SDS011;21379;50.962;6.960;2023-09-18T02:29:05;9.88;;;4.40;;
35245;SDS011;21379;50.962;6.960;2023-09-18T02:31:34;9.15;;;4.20;;
35245;SDS011;21379;50.962;6.960;2023-09-18T02:34:00;6.80;;;4.18;;
35245;SDS011;21379;50.962;6.960;2023-09-18T02:36:27;7.65;;;4.47;;
35245;SDS011;21379;50.962;6.960;2023-09-18T02:38:54;14.00;;;4.55;;
35245;SDS011;21379;50.962;6.960;2023-09-18T02:41:21;10.82;;;5.30;;
35245;SDS011;21379;50.962;6.960;2023-09-18T02:43:47;8.60;;;4.90;;
35245;SDS011;21379;50.962;6.960;2023-09-18T02:46:15;7.53;;;4.10;;
35245;SDS011;21379;50.962;6.960;2023-09-18T02:48:43;6.18;;;3.60;;
35245;SDS011;21379;50.962;6.960;2023-09-18T02:51:10;8.73;;;4.00;;
35245;SDS011;21379;50.962;6.960;2023-09-18T02:53:37;11.93;;;4.20;;
35245;SDS011;21379;50.962;6.960;2023-09-18T02:56:04;8.18;;;4.43;;
35245;SDS011;21379;50.962;6.960;2023-09-18T02:58:31;9.77;;;4.47;;
35245;SDS011;21379;50.962;6.960;2023-09-18T03:00:57;9.40;;;4.60;;
35245;SDS011;21379;50.962;6.960;2023-09-18T03:03:24;8.93;;;4.53;;
35245;SDS011;21379;50.962;6.960;2023-09-18T03:05:53;7.45;;;4.07;;
35245;SDS011;21379;50.962;6.960;2023-09-18T03:08:27;11.38;;;4.57;;
35245;SDS011;21379;50.962;6.960;2023-09-18T03:10:54;10.70;;;5.25;;
35245;SDS011;21379;50.962;6.960;2023-09-18T03:13:22;10.13;;;4.50;;
35245;SDS011;21379;50.962;6.960;2023-09-18T03:15:49;9.13;;;4.78;;
35245;SDS011;21379;50.962;6.960;2023-09-18T03:18:16;9.52;;;4.40;;
35245;SDS011;21379;50.962;6.960;2023-09-18T03:20:43;10.50;;;4.28;;
35245;SDS011;21379;50.962;6.960;2023-09-18T03:23:11;10.35;;;4.72;;
35245;SDS011;21379;50.962;6.960;2023-09-18T03:25:39;6.88;;;4.63;;
35245;SDS011;21379;50.962;6.960;2023-09-18T03:28:06;10.75;;;4.78;;
35245;SDS011;21379;50.962;6.960;2023-09-18T03:30:33;10.15;;;4.47;;
35245;SDS011;21379;50.962;6.960;2023-09-18T03:33:02;7.68;;;5.03;;
35245;SDS011;21379;50.962;6.960;2023-09-18T03:35:30;10.73;;;4.72;;
35245;SDS011;21379;50.962;6.960;2023-09-18T03:37:58;7.47;;;5.05;;
35245;SDS011;21379;50.962;6.960;2023-09-18T03:40:26;11.50;;;4.70;;
35245;SDS011;21379;50.962;6.960;2023-09-18T03:42:52;9.93;;;4.53;;
35245;SDS011;21379;50.962;6.960;2023-09-18T03:45:19;13.52;;;4.70;;
35245;SDS011;21379;50.962;6.960;2023-09-18T03:47:48;9.48;;;4.50;;
35245;SDS011;21379;50.962;6.960;2023-09-18T03:50:15;8.48;;;4.40;;
35245;SDS011;21379;50.962;6.960;2023-09-18T03:52:42;7.25;;;4.80;;
35245;SDS011;21379;50.962;6.960;2023-09-18T03:55:09;9.07;;;4.60;;
35245;SDS011;21379;50.962;6.960;2023-09-18T03:57:38;11.88;;;4.90;;
35245;SDS011;21379;50.962;6.960;2023-09-18T04:00:06;10.25;;;4.60;;
35245;SDS011;21379;50.962;6.960;2023-09-18T04:02:37;11.77;;;5.35;;
35245;SDS011;21379;50.962;6.960;2023-09-18T04:05:04;11.90;;;4.72;;
35245;SDS011;21379;50.962;6.960;2023-09-18T04:07:33;9.60;;;4.55;;
35245;SDS011;21379;50.962;6.960;2023-09-18T04:10:00;11.77;;;4.35;;
35245;SDS011;21379;50.962;6.960;2023-09-18T04:12:27;10.27;;;4.57;;
35245;SDS011;21379;50.962;6.960;2023-09-18T04:14:55;12.48;;;4.35;;
35245;SDS011;21379;50.962;6.960;2023-09-18T04:17:22;7.90;;;4.07;;
35245;SDS011;21379;50.962;6.960;2023-09-18T04:19:50;7.20;;;3.92;;
35245;SDS011;21379;50.962;6.960;2023-09-18T04:22:16;7.50;;;3.95;;
35245;SDS011;21379;50.962;6.960;2023-09-18T04:24:43;7.30;;;3.60;;
35245;SDS011;21379;50.962;6.960;2023-09-18T04:27:10;9.32;;;3.83;;
35245;SDS011;21379;50.962;6.960;2023-09-18T04:29:37;11.75;;;4.93;;
35245;SDS011;21379;50.962;6.960;2023-09-18T04:32:05;9.75;;;3.78;;
35245;SDS011;21379;50.962;6.960;2023-09-18T04:34:32;10.57;;;4.22;;
35245;SDS011;21379;50.962;6.960;2023-09-18T04:37:00;13.38;;;4.13;;
35245;SDS011;21379;50.962;6.960;2023-09-18T04:39:28;10.70;;;3.95;;
35245;SDS011;21379;50.962;6.960;2023-09-18T04:42:00;10.95;;;4.25;;
35245;SDS011;21379;50.962;6.960;2023-09-18T04:44:29;9.02;;;4.28;;
35245;SDS011;21379;50.962;6.960;2023-09-18T04:46:56;11.07;;;4.47;;
35245;SDS011;21379;50.962;6.960;2023-09-18T04:51:53;10.65;;;3.80;;
35245;SDS011;21379;50.962;6.960;2023-09-18T04:54:21;11.45;;;3.95;;
35245;SDS011;21379;50.962;6.960;2023-09-18T04:56:48;10.38;;;3.83;;
35245;SDS011;21379;50.962;6.960;2023-09-18T04:59:15;9.43;;;3.97;;
35245;SDS011;21379;50.962;6.960;2023-09-18T05:01:42;9.93;;;4.43;;
35245;SDS011;21379;50.962;6.960;2023-09-18T05:04:09;9.63;;;4.13;;
35245;SDS011;21379;50.962;6.960;2023-09-18T05:06:37;9.82;;;4.20;;
35245;SDS011;21379;50.962;6.960;2023-09-18T05:09:05;8.60;;;4.05;;
35245;SDS011;21379;50.962;6.960;2023-09-18T05:11:32;10.32;;;4.05;;
35245;SDS011;21379;50.962;6.960;2023-09-18T05:13:59;9.18;;;4.03;;
35245;SDS011;21379;50.962;6.960;2023-09-18T05:16:26;11.10;;;3.75;;
35245;SDS011;21379;50.962;6.960;2023-09-18T05:18:53;16.65;;;4.07;;
35245;SDS011;21379;50.962;6.960;2023-09-18T05:21:20;11.45;;;3.88;;
35245;SDS011;21379;50.962;6.960;2023-09-18T05:23:51;12.90;;;3.72;;
35245;SDS011;21379;50.962;6.960;2023-09-18T05:26:19;8.95;;;3.60;;
35245;SDS011;21379;50.962;6.960;2023-09-18T05:28:48;10.60;;;4.05;;
35245;SDS011;21379;50.962;6.960;2023-09-18T05:31:15;7.90;;;4.35;;
35245;SDS011;21379;50.962;6.960;2023-09-18T05:33:42;9.73;;;3.75;;
35245;SDS011;21379;50.962;6.960;2023-09-18T05:36:09;10.73;;;4.25;;
35245;SDS011;21379;50.962;6.960;2023-09-18T05:38:35;9.60;;;3.97;;
35245;SDS011;21379;50.962;6.960;2023-09-18T05:41:04;10.32;;;3.60;;
35245;SDS011;21379;50.962;6.960;2023-09-18T05:43:31;11.63;;;4.07;;
35245;SDS011;21379;50.962;6.960;2023-09-18T05:45:57;7.38;;;3.53;;
35245;SDS011;21379;50.962;6.960;2023-09-18T05:48:24;9.00;;;3.92;;
35245;SDS011;21379;50.962;6.960;2023-09-18T05:50:54;9.40;;;3.45;;
35245;SDS011;21379;50.962;6.960;2023-09-18T05:53:21;10.48;;;3.50;;
35245;SDS011;21379;50.962;6.960;2023-09-18T05:55:47;9.15;;;3.30;;
35245;SDS011;21379;50.962;6.960;2023-09-18T05:58:15;10.13;;;3.90;;
35245;SDS011;21379;50.962;6.960;2023-09-18T06:00:46;12.95;;;4.22;;
35245;SDS011;21379;50.962;6.960;2023-09-18T06:03:14;11.18;;;3.42;;
35245;SDS011;21379;50.962;6.960;2023-09-18T06:05:44;10.07;;;3.28;;
35245;SDS011;21379;50.962;6.960;2023-09-18T06:08:10;9.35;;;4.22;;
35245;SDS011;21379;50.962;6.960;2023-09-18T06:10:37;10.20;;;3.20;;
35245;SDS011;21379;50.962;6.960;2023-09-18T06:13:04;9.98;;;3.13;;
35245;SDS011;21379;50.962;6.960;2023-09-18T06:15:32;11.23;;;2.97;;
35245;SDS011;21379;50.962;6.960;2023-09-18T06:17:59;10.15;;;3.33;;
35245;SDS011;21379;50.962;6.960;2023-09-18T06:20:25;10.50;;;2.97;;
35245;SDS011;21379;50.962;6.960;2023-09-18T06:22:52;8.38;;;3.17;;
35245;SDS011;21379;50.962;6.960;2023-09-18T06:25:19;8.48;;;3.30;;
35245;SDS011;21379;50.962;6.960;2023-09-18T06:27:46;12.88;;;2.70;;
35245;SDS011;21379;50.962;6.960;2023-09-18T06:30:12;9.75;;;3.05;;
35245;SDS011;21379;50.962;6.960;2023-09-18T06:32:41;8.27;;;3.00;;
35245;SDS011;21379;50.962;6.960;2023-09-18T06:35:08;5.70;;;2.80;;
35245;SDS011;21379;50.962;6.960;2023-09-18T06:37:35;6.50;;;2.65;;
35245;SDS011;21379;50.962;6.960;2023-09-18T06:40:01;9.63;;;2.67;;
35245;SDS011;21379;50.962;6.960;2023-09-18T06:42:30;13.02;;;3.08;;
35245;SDS011;21379;50.962;6.960;2023-09-18T06:44:58;9.45;;;2.60;;
35245;SDS011;21379;50.962;6.960;2023-09-18T06:47:26;6.18;;;3.00;;
35245;SDS011;21379;50.962;6.960;2023-09-18T06:49:54;6.30;;;2.55;;
35245;SDS011;21379;50.962;6.960;2023-09-18T06:52:21;7.10;;;3.03;;
35245;SDS011;21379;50.962;6.960;2023-09-18T06:54:47;7.30;;;2.63;;
35245;SDS011;21379;50.962;6.960;2023-09-18T06:57:17;5.50;;;2.30;;
35245;SDS011;21379;50.962;6.960;2023-09-18T06:59:46;5.28;;;2.40;;
35245;SDS011;21379;50.962;6.960;2023-09-18T07:02:13;7.38;;;2.20;;
35245;SDS011;21379;50.962;6.960;2023-09-18T07:04:40;7.50;;;2.70;;
35245;SDS011;21379;50.962;6.960;2023-09-18T07:07:11;5.13;;;2.40;;
35245;SDS011;21379;50.962;6.960;2023-09-18T07:09:39;8.80;;;2.40;;
35245;SDS011;21379;50.962;6.960;2023-09-18T07:12:06;6.65;;;2.38;;
35245;SDS011;21379;50.962;6.960;2023-09-18T07:14:33;7.38;;;2.58;;
35245;SDS011;21379;50.962;6.960;2023-09-18T07:17:00;5.13;;;1.40;;
35245;SDS011;21379;50.962;6.960;2023-09-18T07:19:27;6.35;;;1.88;;
35245;SDS011;21379;50.962;6.960;2023-09-18T07:21:54;5.63;;;1.65;;
35245;SDS011;21379;50.962;6.960;2023-09-18T07:24:22;5.18;;;2.13;;
35245;SDS011;21379;50.962;6.960;2023-09-18T07:26:48;5.47;;;1.92;;
35245;SDS011;21379;50.962;6.960;2023-09-18T07:29:15;4.88;;;1.77;;
35245;SDS011;21379;50.962;6.960;2023-09-18T07:31:42;5.43;;;2.03;;
35245;SDS011;21379;50.962;6.960;2023-09-18T07:34:09;3.80;;;1.60;;
35245;SDS011;21379;50.962;6.960;2023-09-18T07:36:36;5.55;;;1.77;;
35245;SDS011;21379;50.962;6.960;2023-09-18T07:39:02;4.30;;;2.00;;
35245;SDS011;21379;50.962;6.960;2023-09-18T07:41:31;7.63;;;1.90;;
35245;SDS011;21379;50.962;6.960;2023-09-18T07:43:57;3.63;;;1.70;;
35245;SDS011;21379;50.962;6.960;2023-09-18T07:46:24;5.32;;;1.55;;
35245;SDS011;21379;50.962;6.960;2023-09-18T07:48:51;5.53;;;2.55;;
35245;SDS011;21379;50.962;6.960;2023-09-18T07:51:18;15.43;;;2.05;;
35245;SDS011;21379;50.962;6.960;2023-09-18T07:53:45;3.22;;;1.40;;
35245;SDS011;21379;50.962;6.960;2023-09-18T07:56:12;3.40;;;1.50;;
35245;SDS011;21379;50.962;6.960;2023-09-18T07:58:40;3.17;;;1.23;;
35245;SDS011;21379;50.962;6.960;2023-09-18T08:01:06;3.67;;;1.88;;
35245;SDS011;21379;50.962;6.960;2023-09-18T08:06:00;5.18;;;1.45;;
35245;SDS011;21379;50.962;6.960;2023-09-18T08:08:29;4.72;;;1.40;;
35245;SDS011;21379;50.962;6.960;2023-09-18T08:10:58;5.28;;;1.42;;
35245;SDS011;21379;50.962;6.960;2023-09-18T08:13:26;8.38;;;1.40;;
35245;SDS011;21379;50.962;6.960;2023-09-18T08:15:55;2.25;;;1.08;;
35245;SDS011;21379;50.962;6.960;2023-09-18T08:18:22;5.35;;;1.75;;
35245;SDS011;21379;50.962;6.960;2023-09-18T08:20:52;5.72;;;1.38;;
35245;SDS011;21379;50.962;6.960;2023-09-18T08:23:19;3.53;;;1.33;;
35245;SDS011;21379;50.962;6.960;2023-09-18T08:25:46;3.65;;;1.23;;
35245;SDS011;21379;50.962;6.960;2023-09-18T08:30:40;2.53;;;1.10;;
35245;SDS011;21379;50.962;6.960;2023-09-18T08:33:11;3.90;;;1.00;;
35245;SDS011;21379;50.962;6.960;2023-09-18T08:35:38;3.10;;;1.20;;
35245;SDS011;21379;50.962;6.960;2023-09-18T08:38:04;4.30;;;1.40;;
35245;SDS011;21379;50.962;6.960;2023-09-18T08:40:32;4.43;;;1.25;;
35245;SDS011;21379;50.962;6.960;2023-09-18T08:43:00;7.72;;;1.65;;
35245;SDS011;21379;50.962;6.960;2023-09-18T08:45:31;3.70;;;1.27;;
35245;SDS011;21379;50.962;6.960;2023-09-18T08:48:01;5.65;;;1.40;;
35245;SDS011;21379;50.962;6.960;2023-09-18T08:52:56;4.50;;;1.25;;
35245;SDS011;21379;50.962;6.960;2023-09-18T08:55:24;3.45;;;1.55;;
35245;SDS011;21379;50.962;6.960;2023-09-18T08:57:50;5.32;;;1.40;;
35245;SDS011;21379;50.962;6.960;2023-09-18T09:00:18;4.57;;;1.30;;
35245;SDS011;21379;50.962;6.960;2023-09-18T09:02:45;3.88;;;1.48;;
35245;SDS011;21379;50.962;6.960;2023-09-18T09:05:14;4.22;;;1.40;;
35245;SDS011;21379;50.962;6.960;2023-09-18T09:07:42;5.78;;;1.40;;
35245;SDS011;21379;50.962;6.960;2023-09-18T09:10:09;4.82;;;1.35;;
35245;SDS011;21379;50.962;6.960;2023-09-18T09:15:16;4.95;;;1.38;;
35245;SDS011;21379;50.962;6.960;2023-09-18T09:17:45;4.25;;;1.77;;
35245;SDS011;21379;50.962;6.960;2023-09-18T09:20:13;3.90;;;1.20;;
35245;SDS011;21379;50.962;6.960;2023-09-18T09:22:42;3.22;;;1.40;;
35245;SDS011;21379;50.962;6.960;2023-09-18T09:25:21;4.95;;;1.42;;
35245;SDS011;21379;50.962;6.960;2023-09-18T09:27:49;2.58;;;1.05;;
35245;SDS011;21379;50.962;6.960;2023-09-18T09:30:19;4.35;;;1.30;;
35245;SDS011;21379;50.962;6.960;2023-09-18T09:32:49;4.10;;;1.45;;
35245;SDS011;21379;50.962;6.960;2023-09-18T09:35:21;2.97;;;1.30;;
35245;SDS011;21379;50.962;6.960;2023-09-18T09:37:51;4.00;;;1.40;;
35245;SDS011;21379;50.962;6.960;2023-09-18T09:40:18;5.18;;;1.23;;
35245;SDS011;21379;50.962;6.960;2023-09-18T09:42:46;5.07;;;1.50;;
35245;SDS011;21379;50.962;6.960;2023-09-18T09:45:13;4.65;;;1.27;;
35245;SDS011;21379;50.962;6.960;2023-09-18T09:47:53;4.88;;;1.38;;
35245;SDS011;21379;50.962;6.960;2023-09-18T09:50:20;3.50;;;1.40;;
35245;SDS011;21379;50.962;6.960;2023-09-18T09:52:47;3.53;;;1.05;;
35245;SDS011;21379;50.962;6.960;2023-09-18T09:55:19;3.03;;;1.10;;
35245;SDS011;21379;50.962;6.960;2023-09-18T09:57:48;3.67;;;1.40;;
35245;SDS011;21379;50.962;6.960;2023-09-18T10:00:15;4.80;;;1.45;;
35245;SDS011;21379;50.962;6.960;2023-09-18T10:02:53;4.82;;;1.50;;
35245;SDS011;21379;50.962;6.960;2023-09-18T10:05:23;2.78;;;1.45;;
35245;SDS011;21379;50.962;6.960;2023-09-18T10:07:53;3.60;;;1.30;;
35245;SDS011;21379;50.962;6.960;2023-09-18T10:10:24;2.00;;;1.15;;
35245;SDS011;21379;50.962;6.960;2023-09-18T10:12:55;2.42;;;1.20;;
35245;SDS011;21379;50.962;6.960;2023-09-18T10:15:26;1.98;;;1.00;;
35245;SDS011;21379;50.962;6.960;2023-09-18T10:17:56;2.58;;;1.10;;
35245;SDS011;21379;50.962;6.960;2023-09-18T10:20:24;5.10;;;1.25;;
35245;SDS011;21379;50.962;6.960;2023-09-18T10:22:52;4.43;;;1.08;;
35245;SDS011;21379;50.962;6.960;2023-09-18T10:25:21;3.72;;;1.20;;
35245;SDS011;21379;50.962;6.960;2023-09-18T10:27:51;2.30;;;1.27;;
35245;SDS011;21379;50.962;6.960;2023-09-18T10:30:23;5.95;;;0.90;;
35245;SDS011;21379;50.962;6.960;2023-09-18T10:32:51;4.50;;;1.58;;
35245;SDS011;21379;50.962;6.960;2023-09-18T10:35:18;3.53;;;1.17;;
35245;SDS011;21379;50.962;6.960;2023-09-18T10:37:46;5.38;;;1.40;;
35245;SDS011;21379;50.962;6.960;2023-09-18T10:40:16;1.40;;;0.85;;
35245;SDS011;21379;50.962;6.960;2023-09-18T10:42:45;4.13;;;1.40;;
35245;SDS011;21379;50.962;6.960;2023-09-18T10:45:12;3.67;;;1.10;;
35245;SDS011;21379;50.962;6.960;2023-09-18T10:47:41;3.33;;;0.95;;
35245;SDS011;21379;50.962;6.960;2023-09-18T10:50:10;2.13;;;1.20;;
35245;SDS011;21379;50.962;6.960;2023-09-18T10:52:38;2.55;;;1.30;;
35245;SDS011;21379;50.962;6.960;2023-09-18T10:55:10;2.47;;;1.00;;
35245;SDS011;21379;50.962;6.960;2023-09-18T10:57:37;1.48;;;0.88;;
35245;SDS011;21379;50.962;6.960;2023-09-18T11:00:06;3.53;;;1.10;;
35245;SDS011;21379;50.962;6.960;2023-09-18T11:02:39;3.13;;;1.23;;
35245;SDS011;21379;50.962;6.960;2023-09-18T11:05:06;1.92;;;1.10;;
35245;SDS011;21379;50.962;6.960;2023-09-18T11:07:33;4.65;;;0.90;;
35245;SDS011;21379;50.962;6.960;2023-09-18T11:12:42;4.10;;;0.98;;
35245;SDS011;21379;50.962;6.960;2023-09-18T11:15:10;3.28;;;1.20;;
35245;SDS011;21379;50.962;6.960;2023-09-18T11:17:58;3.45;;;1.25;;
35245;SDS011;21379;50.962;6.960;2023-09-18T11:20:25;1.85;;;0.90;;
35245;SDS011;21379;50.962;6.960;2023-09-18T11:22:55;4.70;;;1.50;;
35245;SDS011;21379;50.962;6.960;2023-09-18T11:25:29;5.53;;;1.50;;
35245;SDS011;21379;50.962;6.960;2023-09-18T11:28:06;3.08;;;1.10;;
35245;SDS011;21379;50.962;6.960;2023-09-18T11:30:35;3.08;;;0.88;;
35245;SDS011;21379;50.962;6.960;2023-09-18T11:33:03;4.28;;;1.40;;
35245;SDS011;21379;50.962;6.960;2023-09-18T11:35:31;5.93;;;1.70;;
35245;SDS011;21379;50.962;6.960;2023-09-18T11:38:05;3.15;;;1.50;;
35245;SDS011;21379;50.962;6.960;2023-09-18T11:40:33;2.28;;;1.10;;
35245;SDS011;21379;50.962;6.960;2023-09-18T11:45:50;3.08;;;1.38;;
35245;SDS011;21379;50.962;6.960;2023-09-18T11:48:16;4.38;;;1.13;;
35245;SDS011;21379;50.962;6.960;2023-09-18T11:50:43;5.63;;;1.10;;
35245;SDS011;21379;50.962;6.960;2023-09-18T11:53:11;2.20;;;1.02;;
35245;SDS011;21379;50.962;6.960;2023-09-18T11:55:39;3.03;;;1.33;;
35245;SDS011;21379;50.962;6.960;2023-09-18T11:58:06;6.15;;;1.33;;
35245;SDS011;21379;50.962;6.960;2023-09-18T12:00:34;2.78;;;1.20;;
35245;SDS011;21379;50.962;6.960;2023-09-18T12:03:15;2.75;;;0.90;;
35245;SDS011;21379;50.962;6.960;2023-09-18T12:05:50;2.17;;;1.10;;
35245;SDS011;21379;50.962;6.960;2023-09-18T12:08:18;4.57;;;1.38;;
35245;SDS011;21379;50.962;6.960;2023-09-18T12:10:47;2.90;;;1.30;;
35245;SDS011;21379;50.962;6.960;2023-09-18T12:13:15;2.28;;;1.08;;
35245;SDS011;21379;50.962;6.960;2023-09-18T12:15:42;4.35;;;1.20;;
35245;SDS011;21379;50.962;6.960;2023-09-18T12:18:09;3.35;;;1.25;;
35245;SDS011;21379;50.962;6.960;2023-09-18T12:20:38;2.53;;;1.05;;
35245;SDS011;21379;50.962;6.960;2023-09-18T12:23:11;3.42;;;1.13;;
35245;SDS011;21379;50.962;6.960;2023-09-18T12:25:38;2.83;;;1.38;;
35245;SDS011;21379;50.962;6.960;2023-09-18T12:30:32;2.45;;;1.10;;
35245;SDS011;21379;50.962;6.960;2023-09-18T12:35:26;2.33;;;1.10;;
35245;SDS011;21379;50.962;6.960;2023-09-18T12:37:56;2.90;;;1.10;;
35245;SDS011;21379;50.962;6.960;2023-09-18T12:40:24;6.97;;;1.35;;
35245;SDS011;21379;50.962;6.960;2023-09-18T12:42:51;2.42;;;1.10;;
35245;SDS011;21379;50.962;6.960;2023-09-18T12:45:19;2.67;;;1.17;;
35245;SDS011;21379;50.962;6.960;2023-09-18T12:47:46;2.58;;;1.17;;
35245;SDS011;21379;50.962;6.960;2023-09-18T12:50:13;5.15;;;1.30;;
35245;SDS011;21379;50.962;6.960;2023-09-18T12:52:40;2.13;;;1.30;;
35245;SDS011;21379;50.962;6.960;2023-09-18T12:55:08;3.47;;;1.23;;
35245;SDS011;21379;50.962;6.960;2023-09-18T12:57:35;3.15;;;1.15;;
35245;SDS011;21379;50.962;6.960;2023-09-18T13:00:11;4.25;;;1.20;;
35245;SDS011;21379;50.962;6.960;2023-09-18T13:02:39;4.68;;;1.20;;
35245;SDS011;21379;50.962;6.960;2023-09-18T13:05:06;5.50;;;1.80;;
35245;SDS011;21379;50.962;6.960;2023-09-18T13:10:11;2.10;;;1.00;;
35245;SDS011;21379;50.962;6.960;2023-09-18T13:12:40;1.80;;;1.30;;
35245;SDS011;21379;50.962;6.960;2023-09-18T13:15:07;3.05;;;1.00;;
35245;SDS011;21379;50.962;6.960;2023-09-18T13:17:41;2.38;;;1.20;;
35245;SDS011;21379;50.962;6.960;2023-09-18T13:20:11;3.75;;;1.10;;
35245;SDS011;21379;50.962;6.960;2023-09-18T13:22:39;2.42;;;1.10;;
35245;SDS011;21379;50.962;6.960;2023-09-18T13:27:34;5.43;;;1.08;;
35245;SDS011;21379;50.962;6.960;2023-09-18T13:30:01;2.25;;;1.00;;
35245;SDS011;21379;50.962;6.960;2023-09-18T13:32:32;4.03;;;1.10;;
35245;SDS011;21379;50.962;6.960;2023-09-18T13:35:02;6.55;;;0.98;;
35245;SDS011;21379;50.962;6.960;2023-09-18T13:37:31;3.65;;;1.60;;
35245;SDS011;21379;50.962;6.960;2023-09-18T13:39:58;3.35;;;1.10;;
35245;SDS011;21379;50.962;6.960;2023-09-18T13:42:26;3.58;;;1.08;;
35245;SDS011;21379;50.962;6.960;2023-09-18T13:44:56;1.88;;;1.00;;
35245;SDS011;21379;50.962;6.960;2023-09-18T13:47:25;4.43;;;1.40;;
35245;SDS011;21379;50.962;6.960;2023-09-18T13:49:55;3.58;;;1.02;;
35245;SDS011;21379;50.962;6.960;2023-09-18T13:52:25;1.95;;;1.02;;
35245;SDS011;21379;50.962;6.960;2023-09-18T13:54:51;2.88;;;1.20;;
35245;SDS011;21379;50.962;6.960;2023-09-18T13:57:18;3.55;;;1.23;;
35245;SDS011;21379;50.962;6.960;2023-09-18T13:59:46;4.35;;;1.30;;
35245;SDS011;21379;50.962;6.960;2023-09-18T14:02:15;2.10;;;1.20;;
35245;SDS011;21379;50.962;6.960;2023-09-18T14:04:42;3.40;;;1.35;;
35245;SDS011;21379;50.962;6.960;2023-09-18T14:09:36;3.17;;;1.20;;
35245;SDS011;21379;50.962;6.960;2023-09-18T14:12:03;5.07;;;1.42;;
35245;SDS011;21379;50.962;6.960;2023-09-18T14:14:32;2.65;;;1.10;;
35245;SDS011;21379;50.962;6.960;2023-09-18T14:16:59;2.47;;;1.40;;
35245;SDS011;21379;50.962;6.960;2023-09-18T14:19:27;3.03;;;1.20;;
35245;SDS011;21379;50.962;6.960;2023-09-18T14:21:53;2.28;;;1.00;;
35245;SDS011;21379;50.962;6.960;2023-09-18T14:24:20;3.00;;;1.35;;
35245;SDS011;21379;50.962;6.960;2023-09-18T14:26:49;2.00;;;1.15;;
35245;SDS011;21379;50.962;6.960;2023-09-18T14:29:16;3.10;;;1.40;;
35245;SDS011;21379;50.962;6.960;2023-09-18T14:31:43;4.38;;;1.40;;
35245;SDS011;21379;50.962;6.960;2023-09-18T14:34:09;1.67;;;1.02;;
35245;SDS011;21379;50.962;6.960;2023-09-18T14:36:37;2.72;;;1.35;;
35245;SDS011;21379;50.962;6.960;2023-09-18T14:39:05;5.95;;;1.30;;
35245;SDS011;21379;50.962;6.960;2023-09-18T14:41:33;5.18;;;1.33;;
35245;SDS011;21379;50.962;6.960;2023-09-18T14:43:59;4.85;;;1.25;;
35245;SDS011;21379;50.962;6.960;2023-09-18T14:46:28;3.40;;;1.40;;
35245;SDS011;21379;50.962;6.960;2023-09-18T14:48:55;2.45;;;1.17;;
35245;SDS011;21379;50.962;6.960;2023-09-18T14:51:21;6.20;;;1.70;;
35245;SDS011;21379;50.962;6.960;2023-09-18T14:53:50;2.40;;;1.52;;
35245;SDS011;21379;50.962;6.960;2023-09-18T14:56:16;4.70;;;1.50;;
35245;SDS011;21379;50.962;6.960;2023-09-18T14:58:43;3.25;;;1.38;;
35245;SDS011;21379;50.962;6.960;2023-09-18T15:01:10;2.10;;;1.30;;
35245;SDS011;21379;50.962;6.960;2023-09-18T15:03:37;4.13;;;1.40;;
35245;SDS011;21379;50.962;6.960;2023-09-18T15:06:04;2.47;;;1.25;;
35245;SDS011;21379;50.962;6.960;2023-09-18T15:08:32;2.55;;;1.30;;
35245;SDS011;21379;50.962;6.960;2023-09-18T15:11:00;3.70;;;1.10;;
35245;SDS011;21379;50.962;6.960;2023-09-18T15:13:28;4.20;;;1.45;;
35245;SDS011;21379;50.962;6.960;2023-09-18T15:15:55;1.92;;;1.13;;
35245;SDS011;21379;50.962;6.960;2023-09-18T15:18:22;3.92;;;1.30;;
35245;SDS011;21379;50.962;6.960;2023-09-18T15:20:49;1.88;;;1.10;;
35245;SDS011;21379;50.962;6.960;2023-09-18T15:23:19;2.53;;;1.20;;
35245;SDS011;21379;50.962;6.960;2023-09-18T15:25:47;2.33;;;1.30;;